Time;durP1;ratioP1;P1;durP2;ratioP2;P2;SDS_P1;SDS_P2;PMS_P1;PMS_P2;Temp;Humidity;BMP_temperature;BMP_pressure;BME280_temperature;BME280_humidity;BME280_pressure;Samples;Min_cycle;Max_cycle;Signal;HPM_P1;HPM_P2
2022/06/26 00:01:00;;;;;;;3.30;2.90;;;18.20;99.90;;;;;;5015649;28;20206;-60
2022/06/26 00:03:27;;;;;;;3.07;2.43;;;18.20;99.90;;;;;;5027451;28;20195;-60
2022/06/26 00:05:53;;;;;;;2.70;2.50;;;18.20;99.90;;;;;;5017707;28;20284;-59
2022/06/26 00:08:19;;;;;;;6.30;2.60;;;18.10;99.90;;;;;;5034937;28;20523;-60
2022/06/26 00:10:48;;;;;;;3.83;3.07;;;18.10;99.90;;;;;;5028017;28;21025;-60
2022/06/26 00:13:14;;;;;;;2.83;2.50;;;18.10;99.90;;;;;;5031663;28;20422;-60
2022/06/26 00:15:40;;;;;;;4.83;2.70;;;18.10;99.90;;;;;;5014396;28;20442;-59
2022/06/26 00:18:06;;;;;;;2.80;2.60;;;18.20;99.90;;;;;;5035681;28;20475;-59
2022/06/26 00:20:32;;;;;;;2.83;2.53;;;18.20;99.90;;;;;;5030512;28;20978;-59
2022/06/26 00:22:58;;;;;;;3.90;3.20;;;18.20;99.90;;;;;;5033300;28;20171;-59
2022/06/26 00:25:24;;;;;;;4.50;2.67;;;18.10;99.90;;;;;;5030632;28;20423;-59
2022/06/26 00:27:49;;;;;;;3.37;2.30;;;18.10;99.90;;;;;;5028702;28;20782;-59
2022/06/26 00:30:15;;;;;;;3.17;2.87;;;18.10;99.90;;;;;;5020047;28;20245;-59
2022/06/26 00:32:42;;;;;;;3.23;2.50;;;18.00;99.90;;;;;;5030010;28;20210;-59
2022/06/26 00:35:08;;;;;;;3.57;2.37;;;17.90;99.90;;;;;;5037951;28;20178;-59
2022/06/26 00:37:34;;;;;;;5.97;2.60;;;17.90;99.90;;;;;;5031750;28;20415;-59
2022/06/26 00:40:01;;;;;;;3.00;2.70;;;17.90;99.90;;;;;;5029671;28;20882;-59
2022/06/26 00:42:27;;;;;;;5.60;2.30;;;17.80;99.90;;;;;;5026823;28;20203;-59
2022/06/26 00:44:55;;;;;;;6.43;2.50;;;17.80;99.90;;;;;;5034082;28;20426;-60
2022/06/26 00:47:22;;;;;;;3.00;2.70;;;17.70;99.90;;;;;;5040061;28;20849;-60
2022/06/26 00:49:47;;;;;;;2.80;2.43;;;17.70;99.90;;;;;;5027322;28;20434;-59
2022/06/26 00:52:13;;;;;;;3.27;2.60;;;17.60;99.90;;;;;;5038511;28;20518;-59
2022/06/26 00:54:39;;;;;;;4.50;3.20;;;17.60;99.90;;;;;;5034769;28;20180;-59
2022/06/26 00:57:05;;;;;;;2.63;2.50;;;17.60;99.90;;;;;;5028414;28;20172;-59
2022/06/26 00:59:31;;;;;;;5.17;2.33;;;17.60;99.90;;;;;;5014641;28;20743;-59
2022/06/26 01:01:57;;;;;;;3.07;2.27;;;17.60;99.90;;;;;;5024418;28;21094;-60
2022/06/26 01:04:23;;;;;;;2.60;2.27;;;17.60;99.90;;;;;;5035408;28;20434;-60
2022/06/26 01:06:50;;;;;;;7.80;2.20;;;17.50;99.90;;;;;;5013940;28;20184;-59
2022/06/26 01:09:17;;;;;;;4.27;2.40;;;17.50;99.90;;;;;;5030336;28;20430;-60
2022/06/26 01:11:43;;;;;;;2.43;2.20;;;17.40;99.90;;;;;;5032437;28;20527;-60
2022/06/26 01:14:10;;;;;;;3.60;2.40;;;17.40;99.90;;;;;;5024165;28;20426;-60
2022/06/26 01:16:37;;;;;;;3.20;2.10;;;17.40;99.90;;;;;;5032739;28;20438;-59
2022/06/26 01:19:05;;;;;;;4.93;2.10;;;17.40;99.90;;;;;;5036233;28;20428;-59
2022/06/26 01:21:32;;;;;;;2.10;2.00;;;17.30;99.90;;;;;;5020335;28;20523;-59
2022/06/26 01:23:58;;;;;;;2.70;2.50;;;17.30;99.90;;;;;;5023876;28;20418;-59
2022/06/26 01:26:24;;;;;;;3.07;2.53;;;17.30;99.90;;;;;;5030123;28;20438;-60
2022/06/26 01:28:50;;;;;;;3.30;2.13;;;17.30;99.90;;;;;;5031238;28;20556;-59
2022/06/26 01:31:16;;;;;;;2.90;2.27;;;17.40;99.90;;;;;;5013040;28;20477;-59
2022/06/26 01:33:41;;;;;;;3.37;2.60;;;17.40;99.90;;;;;;5036525;28;20677;-60
2022/06/26 01:36:07;;;;;;;4.27;2.60;;;17.30;99.90;;;;;;5042535;28;20168;-59
2022/06/26 01:38:33;;;;;;;2.60;2.40;;;17.30;99.90;;;;;;5032160;28;20182;-60
2022/06/26 01:40:59;;;;;;;3.10;2.13;;;17.30;99.90;;;;;;5022164;28;20211;-60
2022/06/26 01:43:29;;;;;;;3.27;2.43;;;17.20;99.90;;;;;;5018878;28;20438;-60
2022/06/26 01:45:56;;;;;;;3.10;2.03;;;17.20;99.90;;;;;;5031416;28;20414;-60
2022/06/26 01:48:24;;;;;;;3.43;2.60;;;17.10;99.90;;;;;;5030443;28;20522;-59
2022/06/26 01:50:51;;;;;;;3.50;2.40;;;17.10;99.90;;;;;;5034270;28;20525;-60
2022/06/26 01:53:16;;;;;;;2.67;2.47;;;17.00;99.90;;;;;;5030958;28;20418;-60
2022/06/26 01:55:42;;;;;;;3.23;2.93;;;17.00;99.90;;;;;;5031129;28;20398;-60
2022/06/26 01:58:09;;;;;;;5.93;2.60;;;16.90;99.90;;;;;;5032403;28;20541;-60
2022/06/26 02:00:37;;;;;;;4.13;2.80;;;16.90;99.90;;;;;;5028107;28;20497;-60
2022/06/26 02:03:03;;;;;;;4.60;3.67;;;16.90;99.90;;;;;;5029516;28;20419;-59
2022/06/26 02:05:29;;;;;;;4.73;3.23;;;16.90;99.90;;;;;;5037187;28;20434;-60
2022/06/26 02:07:54;;;;;;;3.60;2.70;;;17.00;99.90;;;;;;5042164;28;20989;-60
2022/06/26 02:15:52;;;;;;;4.33;3.10;;;17.00;99.90;;;;;;5027876;28;20424;-60
2022/06/26 02:18:18;;;;;;;7.23;2.60;;;17.00;99.90;;;;;;5025093;28;20485;-60
2022/06/26 02:20:45;;;;;;;7.60;3.20;;;17.00;99.90;;;;;;5034260;28;20461;-60
2022/06/26 02:23:11;;;;;;;4.30;3.07;;;17.00;99.90;;;;;;5042993;28;20444;-60
2022/06/26 02:25:37;;;;;;;4.33;2.97;;;17.00;99.90;;;;;;5013359;28;20920;-60
2022/06/26 02:28:03;;;;;;;6.43;3.10;;;17.10;99.90;;;;;;5024960;28;20440;-60
2022/06/26 02:30:29;;;;;;;6.07;3.10;;;17.10;99.90;;;;;;5020376;28;20493;-60
2022/06/26 02:32:56;;;;;;;4.10;3.17;;;17.10;99.90;;;;;;5027655;28;20966;-59
2022/06/26 02:35:23;;;;;;;2.87;2.60;;;17.10;99.90;;;;;;5028357;28;20175;-59
2022/06/26 02:37:49;;;;;;;3.17;2.87;;;17.10;99.90;;;;;;5030546;28;20433;-59
2022/06/26 02:40:15;;;;;;;2.90;2.70;;;17.10;99.90;;;;;;5037929;28;20444;-60
2022/06/26 02:42:41;;;;;;;2.80;2.60;;;17.00;99.90;;;;;;5039812;28;20446;-60
2022/06/26 02:45:07;;;;;;;3.07;2.40;;;17.00;99.90;;;;;;5029271;28;20180;-60
2022/06/26 02:47:33;;;;;;;4.53;2.37;;;17.00;99.90;;;;;;5032925;28;20769;-60
2022/06/26 02:49:58;;;;;;;2.90;2.70;;;16.90;99.90;;;;;;5030959;28;20533;-60
2022/06/26 02:52:24;;;;;;;3.03;2.40;;;16.90;99.90;;;;;;5030684;28;20221;-60
2022/06/26 02:54:50;;;;;;;2.57;2.37;;;16.90;99.90;;;;;;5028149;28;20561;-60
2022/06/26 02:57:16;;;;;;;3.20;2.90;;;16.90;99.90;;;;;;5043042;28;20225;-60
2022/06/26 02:59:42;;;;;;;4.70;2.87;;;16.90;99.90;;;;;;5030196;28;20453;-60
2022/06/26 03:02:08;;;;;;;2.90;2.20;;;16.80;99.90;;;;;;5020577;28;20454;-60
2022/06/26 03:04:33;;;;;;;2.63;2.33;;;16.80;99.90;;;;;;5022031;28;20222;-60
2022/06/26 03:06:59;;;;;;;2.73;2.53;;;16.80;99.90;;;;;;5016632;28;20189;-60
2022/06/26 03:09:25;;;;;;;2.30;2.20;;;16.70;99.90;;;;;;5027114;28;20210;-60
2022/06/26 03:11:50;;;;;;;2.80;2.17;;;16.70;99.90;;;;;;5026012;28;20203;-60
2022/06/26 03:14:16;;;;;;;2.50;2.27;;;16.60;99.90;;;;;;5038405;28;20194;-60
2022/06/26 03:16:42;;;;;;;2.37;2.10;;;16.60;99.90;;;;;;5027764;28;20263;-60
2022/06/26 03:19:07;;;;;;;3.73;2.47;;;16.60;99.90;;;;;;5034680;28;20204;-61
2022/06/26 03:21:33;;;;;;;2.50;2.30;;;16.60;99.90;;;;;;5021554;28;20212;-60
2022/06/26 03:24:01;;;;;;;2.80;2.50;;;16.60;99.90;;;;;;5029814;28;20195;-60
2022/06/26 03:26:32;;;;;;;2.50;2.30;;;16.50;99.90;;;;;;5028071;28;20291;-60
2022/06/26 03:28:58;;;;;;;2.30;2.20;;;16.50;99.90;;;;;;5029978;28;20502;-60
2022/06/26 03:31:24;;;;;;;7.03;2.73;;;16.50;99.90;;;;;;5030051;28;20473;-60
2022/06/26 03:33:50;;;;;;;4.33;2.60;;;16.50;99.90;;;;;;5026738;28;20434;-61
2022/06/26 03:36:16;;;;;;;3.90;2.83;;;16.50;99.90;;;;;;5027266;28;20525;-60
2022/06/26 03:38:42;;;;;;;3.13;2.60;;;16.50;99.90;;;;;;5014453;28;20271;-60
2022/06/26 03:41:08;;;;;;;2.53;2.33;;;16.40;99.90;;;;;;5024707;28;20459;-60
2022/06/26 03:43:34;;;;;;;6.13;2.63;;;16.40;99.90;;;;;;5027150;28;20434;-60
2022/06/26 03:46:00;;;;;;;3.03;2.73;;;16.40;99.90;;;;;;5034680;28;20696;-60
2022/06/26 03:48:25;;;;;;;3.00;2.30;;;16.40;99.90;;;;;;5029077;28;20309;-60
2022/06/26 03:50:51;;;;;;;3.00;2.60;;;16.40;99.90;;;;;;5029842;28;20211;-60
2022/06/26 03:53:17;;;;;;;3.53;2.47;;;16.40;99.90;;;;;;5029207;28;20179;-60
2022/06/26 03:55:43;;;;;;;2.60;2.40;;;16.30;99.90;;;;;;5023689;28;20181;-60
2022/06/26 03:58:09;;;;;;;2.60;2.40;;;16.30;99.90;;;;;;5025018;28;20449;-60
2022/06/26 04:00:35;;;;;;;2.53;2.33;;;16.30;99.90;;;;;;5010054;28;20656;-60
2022/06/26 04:03:05;;;;;;;3.13;2.70;;;16.30;99.90;;;;;;5026477;28;20429;-60
2022/06/26 04:05:32;;;;;;;2.80;2.60;;;16.30;99.90;;;;;;5032355;28;20934;-60
2022/06/26 04:07:58;;;;;;;2.53;2.37;;;16.20;99.90;;;;;;5032480;28;20949;-61
2022/06/26 04:10:24;;;;;;;2.47;2.27;;;16.20;99.90;;;;;;5031696;28;20417;-61
2022/06/26 04:12:49;;;;;;;2.17;2.07;;;16.20;99.90;;;;;;5029709;28;20469;-60
2022/06/26 04:15:15;;;;;;;3.00;2.20;;;16.10;99.90;;;;;;5040971;28;20175;-60
2022/06/26 04:17:41;;;;;;;5.47;2.47;;;16.10;99.90;;;;;;5023800;28;20183;-60
2022/06/26 04:20:08;;;;;;;2.40;2.23;;;16.10;99.90;;;;;;5032066;28;20837;-60
2022/06/26 04:22:34;;;;;;;2.63;1.97;;;16.10;99.90;;;;;;5025973;28;20217;-60
2022/06/26 04:25:00;;;;;;;2.20;2.07;;;16.00;99.90;;;;;;5035799;28;20552;-60
2022/06/26 04:27:26;;;;;;;5.93;2.60;;;16.00;99.90;;;;;;5025627;28;20971;-60
2022/06/26 04:32:29;;;;;;;3.53;2.03;;;16.00;99.90;;;;;;5017242;23;20602;-59
2022/06/26 04:34:55;;;;;;;4.97;2.20;;;16.00;99.90;;;;;;5007119;28;20408;-59
2022/06/26 04:37:21;;;;;;;4.63;2.13;;;15.90;99.90;;;;;;4988945;28;20364;-59
2022/06/26 04:39:46;;;;;;;2.77;2.57;;;15.90;99.90;;;;;;4988548;28;20173;-59
2022/06/26 04:42:12;;;;;;;4.67;2.60;;;15.90;99.90;;;;;;4978108;28;20200;-59
2022/06/26 04:44:37;;;;;;;2.90;2.67;;;15.90;99.90;;;;;;4981785;28;20738;-60
2022/06/26 04:47:03;;;;;;;6.90;4.30;;;16.00;99.90;;;;;;4984718;28;20184;-59
2022/06/26 04:49:29;;;;;;;11.43;4.33;;;16.00;99.90;;;;;;4983214;28;20194;-59
2022/06/26 04:51:54;;;;;;;6.30;5.03;;;16.00;99.90;;;;;;4988561;28;20929;-59
2022/06/26 04:54:20;;;;;;;8.47;4.87;;;16.10;99.90;;;;;;4985077;28;20639;-60
2022/06/26 04:56:45;;;;;;;8.50;5.50;;;16.10;99.90;;;;;;4987998;28;20209;-59
2022/06/26 04:59:11;;;;;;;12.93;5.73;;;16.20;99.90;;;;;;4981211;28;20192;-59
2022/06/26 05:01:37;;;;;;;11.73;5.77;;;16.20;99.90;;;;;;4973574;28;20228;-60
2022/06/26 05:04:02;;;;;;;10.77;6.57;;;16.30;99.90;;;;;;4984416;28;20634;-59
2022/06/26 05:06:28;;;;;;;9.70;6.23;;;16.40;99.90;;;;;;4986926;28;20264;-59
2022/06/26 05:08:53;;;;;;;11.00;6.67;;;16.40;99.90;;;;;;4978449;28;20186;-60
2022/06/26 05:11:19;;;;;;;11.70;6.77;;;16.40;99.90;;;;;;4988912;28;20842;-60
2022/06/26 05:13:46;;;;;;;11.60;7.23;;;16.50;99.90;;;;;;4988079;28;20173;-59
2022/06/26 05:16:11;;;;;;;8.70;6.70;;;16.40;99.90;;;;;;4990842;28;20231;-60
2022/06/26 05:18:37;;;;;;;10.27;7.47;;;16.30;99.90;;;;;;4989108;28;20436;-60
2022/06/26 05:21:03;;;;;;;8.50;7.07;;;16.30;99.90;;;;;;4990308;28;20269;-60
2022/06/26 05:23:29;;;;;;;15.67;8.00;;;16.40;99.90;;;;;;4990980;28;20181;-59
2022/06/26 05:25:55;;;;;;;10.37;8.60;;;16.50;99.90;;;;;;4990754;28;21031;-59
2022/06/26 05:28:20;;;;;;;12.17;8.97;;;16.50;99.90;;;;;;4977725;28;20176;-62
2022/06/26 05:30:46;;;;;;;13.70;10.43;;;16.60;99.90;;;;;;4988288;28;21283;-59
2022/06/26 05:33:12;;;;;;;16.80;10.53;;;16.60;99.90;;;;;;4991654;28;20240;-59
2022/06/26 05:35:38;;;;;;;16.87;12.33;;;16.60;99.90;;;;;;4990688;28;20176;-59
2022/06/26 05:38:03;;;;;;;13.87;11.23;;;16.50;99.90;;;;;;4991267;28;20184;-59
2022/06/26 05:40:29;;;;;;;18.07;12.70;;;16.50;99.90;;;;;;4984300;28;20495;-60
2022/06/26 05:42:56;;;;;;;15.97;11.70;;;16.60;99.90;;;;;;4991835;28;20285;-60
2022/06/26 05:45:22;;;;;;;14.30;11.00;;;16.60;99.90;;;;;;4991444;28;20181;-59
2022/06/26 05:47:48;;;;;;;17.13;11.60;;;16.60;99.90;;;;;;4989074;28;20877;-59
2022/06/26 05:50:14;;;;;;;15.47;12.13;;;16.70;99.90;;;;;;4990955;28;20636;-60
2022/06/26 05:52:40;;;;;;;19.17;12.73;;;16.70;99.90;;;;;;4990310;28;20619;-59
2022/06/26 05:55:07;;;;;;;16.17;11.00;;;16.80;99.90;;;;;;4987340;28;20924;-60
2022/06/26 05:57:32;;;;;;;16.40;11.33;;;16.90;99.90;;;;;;4985819;28;20428;-60
2022/06/26 05:59:58;;;;;;;14.07;10.23;;;17.00;99.90;;;;;;5001521;28;21077;-59
2022/06/26 06:02:24;;;;;;;11.77;9.67;;;17.00;99.90;;;;;;4989353;28;20201;-59
2022/06/26 06:04:50;;;;;;;9.90;8.00;;;17.10;99.90;;;;;;4990209;28;20181;-59
2022/06/26 06:07:15;;;;;;;14.73;8.63;;;17.20;99.90;;;;;;4989165;28;20196;-59
2022/06/26 06:09:41;;;;;;;9.93;5.87;;;17.40;99.90;;;;;;4985861;28;20488;-59
2022/06/26 06:12:07;;;;;;;8.23;4.83;;;17.50;99.90;;;;;;4986267;28;20292;-59
2022/06/26 06:14:33;;;;;;;4.40;3.27;;;17.60;99.90;;;;;;4988565;28;20177;-60
2022/06/26 06:17:35;;;;;;;3.20;2.93;;;17.70;99.90;;;;;;4992029;28;20416;-59
2022/06/26 06:19:44;;;;;;;4.50;3.17;;;17.80;99.90;;;;;;4986273;28;20263;-59
2022/06/26 06:22:09;;;;;;;3.30;2.77;;;17.90;99.90;;;;;;4986076;28;20876;-59
2022/06/26 06:24:35;;;;;;;5.50;2.43;;;17.90;99.90;;;;;;4989787;28;20185;-59
2022/06/26 06:27:00;;;;;;;2.53;2.33;;;18.00;99.90;;;;;;4990467;28;20601;-59
2022/06/26 06:29:26;;;;;;;3.97;2.90;;;18.10;99.90;;;;;;4985610;28;20257;-60
2022/06/26 06:31:52;;;;;;;2.47;2.37;;;18.20;99.90;;;;;;4988865;28;20723;-60
2022/06/26 06:34:17;;;;;;;2.50;2.30;;;18.30;99.90;;;;;;4976023;28;20178;-59
2022/06/26 06:36:43;;;;;;;2.53;2.40;;;18.30;99.90;;;;;;4974887;28;20284;-57
2022/06/26 06:39:08;;;;;;;2.23;2.13;;;18.40;99.90;;;;;;4980868;28;20183;-59
2022/06/26 06:41:34;;;;;;;2.87;2.30;;;18.50;99.90;;;;;;4981400;28;20201;-57
2022/06/26 06:43:59;;;;;;;3.80;2.10;;;18.60;99.90;;;;;;4984573;28;20174;-58
2022/06/26 06:46:25;;;;;;;2.63;2.10;;;18.70;99.90;;;;;;4982302;28;20794;-58
2022/06/26 06:48:51;;;;;;;2.00;1.90;;;18.80;99.90;;;;;;4979705;28;20205;-58
2022/06/26 06:51:16;;;;;;;4.90;4.40;;;18.90;99.90;;;;;;4985214;28;20291;-58
2022/06/26 06:53:42;;;;;;;2.90;2.20;;;18.90;99.90;;;;;;4984735;28;20837;-58
2022/06/26 06:56:08;;;;;;;3.27;2.40;;;19.00;99.90;;;;;;4980272;28;20178;-58
2022/06/26 06:58:33;;;;;;;3.73;1.83;;;19.00;99.90;;;;;;4985678;28;20666;-59
2022/06/26 07:00:59;;;;;;;1.90;1.80;;;19.10;99.90;;;;;;4988916;28;20196;-58
2022/06/26 07:03:24;;;;;;;2.17;1.97;;;19.20;99.90;;;;;;4982528;28;20187;-60
2022/06/26 07:05:50;;;;;;;2.00;1.90;;;19.30;99.90;;;;;;4984837;28;20181;-58
2022/06/26 07:08:16;;;;;;;1.83;1.70;;;19.40;99.90;;;;;;4982041;28;20315;-58
2022/06/26 07:10:42;;;;;;;4.03;2.33;;;19.50;99.90;;;;;;4985659;28;20240;-58
2022/06/26 07:13:10;;;;;;;2.17;1.97;;;19.70;99.90;;;;;;4987100;28;20173;-58
2022/06/26 07:15:36;;;;;;;3.90;1.80;;;19.70;99.90;;;;;;4982432;28;20268;-58
2022/06/26 07:18:01;;;;;;;3.00;2.07;;;19.80;99.90;;;;;;4984002;28;20519;-57
2022/06/26 07:20:27;;;;;;;2.17;1.97;;;19.90;99.90;;;;;;4976180;28;20460;-61
2022/06/26 07:22:53;;;;;;;2.30;1.80;;;19.90;99.90;;;;;;4986136;28;20558;-60
2022/06/26 07:25:19;;;;;;;1.80;1.70;;;20.00;99.90;;;;;;4988189;28;20778;-61
2022/06/26 07:27:45;;;;;;;4.20;1.60;;;20.10;99.90;;;;;;4981750;28;20174;-60
2022/06/26 07:30:11;;;;;;;2.30;2.00;;;20.20;99.90;;;;;;4980958;28;20773;-59
2022/06/26 07:32:37;;;;;;;2.37;1.90;;;20.30;99.90;;;;;;4983031;28;20471;-60
2022/06/26 07:35:03;;;;;;;1.67;1.57;;;20.30;99.90;;;;;;4980815;28;20856;-60
2022/06/26 07:37:29;;;;;;;2.30;2.10;;;20.40;99.90;;;;;;4980533;28;20181;-61
2022/06/26 07:39:55;;;;;;;1.40;1.30;;;20.50;99.90;;;;;;4983407;28;20433;-60
2022/06/26 07:42:21;;;;;;;2.30;1.83;;;20.50;99.90;;;;;;4984962;28;22061;-60
2022/06/26 07:44:46;;;;;;;1.63;1.53;;;20.50;99.90;;;;;;4987347;28;20675;-60
2022/06/26 07:47:12;;;;;;;1.70;1.60;;;20.50;99.90;;;;;;4980485;28;20638;-60
2022/06/26 07:49:38;;;;;;;3.40;1.63;;;20.60;99.90;;;;;;4980491;28;20182;-60
2022/06/26 07:52:04;;;;;;;1.60;1.47;;;20.70;99.90;;;;;;4981565;28;20215;-60
2022/06/26 07:54:29;;;;;;;1.37;1.27;;;20.80;99.90;;;;;;4984640;28;20189;-61
2022/06/26 07:56:55;;;;;;;1.47;1.37;;;20.80;99.90;;;;;;4981446;28;20193;-60
2022/06/26 07:59:20;;;;;;;1.70;1.60;;;20.80;99.90;;;;;;4982894;28;20213;-60
2022/06/26 08:01:46;;;;;;;1.40;1.30;;;20.80;99.90;;;;;;4972317;28;20211;-61
2022/06/26 08:04:12;;;;;;;1.53;1.30;;;20.90;99.90;;;;;;4977786;28;20184;-62
2022/06/26 08:06:37;;;;;;;5.20;1.40;;;21.00;99.90;;;;;;4977046;28;20671;-63
2022/06/26 08:09:03;;;;;;;1.63;1.37;;;21.10;99.90;;;;;;4986280;28;20208;-63
2022/06/26 08:11:29;;;;;;;4.30;1.23;;;21.10;96.80;;;;;;4979653;28;20224;-63
2022/06/26 08:13:54;;;;;;;1.10;1.03;;;21.10;96.70;;;;;;4985975;28;20185;-63
2022/06/26 08:16:20;;;;;;;1.20;1.17;;;21.10;97.50;;;;;;4976695;28;20181;-63
2022/06/26 08:18:46;;;;;;;2.20;1.20;;;21.20;98.80;;;;;;4980426;28;20189;-62
2022/06/26 08:23:56;;;;;;;1.30;1.20;;;21.50;99.50;;;;;;4975667;28;20653;-61
2022/06/26 08:26:22;;;;;;;1.23;1.20;;;21.70;97.20;;;;;;4980222;28;20440;-58
2022/06/26 08:28:48;;;;;;;1.30;1.20;;;21.70;96.50;;;;;;4979666;28;20177;-58
2022/06/26 08:31:13;;;;;;;1.60;1.50;;;21.80;96.00;;;;;;4979974;28;20487;-57
2022/06/26 08:33:39;;;;;;;1.23;1.13;;;21.90;96.50;;;;;;4977598;28;20195;-58
2022/06/26 08:36:05;;;;;;;1.40;1.27;;;22.00;98.50;;;;;;4976232;28;20274;-61
2022/06/26 08:38:31;;;;;;;3.20;1.67;;;22.10;96.80;;;;;;4980942;28;20193;-61
2022/06/26 08:41:00;;;;;;;2.00;1.23;;;22.30;96.40;;;;;;4983672;28;20201;-61
2022/06/26 08:43:26;;;;;;;3.03;1.20;;;22.50;95.80;;;;;;4985489;28;20177;-61
2022/06/26 08:45:53;;;;;;;1.10;1.10;;;22.60;94.60;;;;;;4980529;28;20420;-61
2022/06/26 08:48:20;;;;;;;1.80;1.33;;;22.70;95.60;;;;;;4984128;28;20480;-61
2022/06/26 08:50:46;;;;;;;1.20;1.10;;;22.80;95.10;;;;;;4982228;28;20834;-61
2022/06/26 08:53:14;;;;;;;1.40;0.90;;;22.90;93.10;;;;;;4991451;28;21057;-62
2022/06/26 08:55:41;;;;;;;2.03;1.10;;;22.90;91.70;;;;;;4988916;28;20475;-61
2022/06/26 08:58:07;;;;;;;1.20;1.10;;;23.00;89.70;;;;;;4990149;28;20994;-62
2022/06/26 09:00:32;;;;;;;1.10;1.10;;;23.10;88.40;;;;;;4986184;28;20461;-61
2022/06/26 09:02:58;;;;;;;1.63;1.53;;;23.20;90.30;;;;;;4989189;28;20661;-61
2022/06/26 09:05:23;;;;;;;2.77;1.10;;;23.30;89.70;;;;;;4988629;28;20177;-61
2022/06/26 09:07:53;;;;;;;1.90;1.17;;;23.30;84.60;;;;;;4982887;28;20576;-61
2022/06/26 09:10:26;;;;;;;1.90;1.30;;;23.40;82.60;;;;;;4981402;28;20206;-61
2022/06/26 09:12:53;;;;;;;1.20;1.10;;;23.50;80.00;;;;;;4985312;28;20475;-62
2022/06/26 09:15:20;;;;;;;3.13;1.00;;;23.50;79.20;;;;;;4990695;28;20510;-61
2022/06/26 09:17:59;;;;;;;1.40;1.30;;;23.60;78.10;;;;;;4984307;28;20569;-61
2022/06/26 09:20:25;;;;;;;1.30;1.20;;;23.80;73.80;;;;;;4983166;28;20456;-62
2022/06/26 09:22:55;;;;;;;1.33;1.23;;;23.90;70.10;;;;;;4988795;28;20987;-61
2022/06/26 09:25:43;;;;;;;1.10;1.00;;;24.00;68.10;;;;;;4983034;28;20181;-62
2022/06/26 09:28:09;;;;;;;2.83;1.07;;;24.00;65.90;;;;;;4984441;28;20806;-62
2022/06/26 09:30:52;;;;;;;2.00;1.20;;;24.10;66.10;;;;;;4989333;28;20456;-61
2022/06/26 09:33:23;;;;;;;1.57;1.10;;;24.20;62.50;;;;;;4982173;28;20177;-61
2022/06/26 09:35:50;;;;;;;0.90;0.90;;;24.40;62.60;;;;;;4985190;28;20444;-61
2022/06/26 09:38:22;;;;;;;1.50;1.40;;;24.50;62.50;;;;;;4990786;28;20422;-61
2022/06/26 09:40:54;;;;;;;1.00;1.00;;;24.70;60.70;;;;;;4989098;28;20444;-61
2022/06/26 09:43:53;;;;;;;1.13;1.10;;;24.80;59.80;;;;;;4986867;28;20804;-62
2022/06/26 09:46:19;;;;;;;0.90;0.90;;;25.00;59.20;;;;;;4968621;28;20555;-62
2022/06/26 09:48:45;;;;;;;1.30;1.20;;;25.20;57.60;;;;;;4991697;28;20499;-62
2022/06/26 09:51:13;;;;;;;1.23;1.10;;;25.30;57.70;;;;;;4987600;28;20232;-62
2022/06/26 09:53:39;;;;;;;1.03;1.03;;;25.30;58.00;;;;;;4983097;28;20169;-62
2022/06/26 09:56:05;;;;;;;1.20;1.10;;;25.30;57.40;;;;;;4988752;28;20435;-61
2022/06/26 09:58:31;;;;;;;2.13;1.00;;;25.30;57.60;;;;;;4989650;28;20977;-61
2022/06/26 10:06:29;;;;;;;2.03;0.90;;;25.40;56.10;;;;;;4984882;28;21019;-62
2022/06/26 10:08:57;;;;;;;1.37;1.20;;;25.50;55.50;;;;;;4984482;28;20432;-62
2022/06/26 10:11:28;;;;;;;1.17;1.07;;;25.60;55.50;;;;;;4985663;28;20472;-62
2022/06/26 10:13:57;;;;;;;1.20;1.10;;;25.80;55.60;;;;;;4984435;28;20436;-61
2022/06/26 10:16:34;;;;;;;1.20;1.10;;;26.00;56.70;;;;;;4985684;28;20803;-62
2022/06/26 10:19:05;;;;;;;2.40;1.27;;;26.20;55.80;;;;;;4986427;28;20482;-61
2022/06/26 10:21:35;;;;;;;3.03;1.27;;;26.30;54.80;;;;;;4984345;28;20989;-62
2022/06/26 10:24:02;;;;;;;1.23;1.13;;;26.50;54.50;;;;;;4990564;28;20996;-62
2022/06/26 10:26:28;;;;;;;1.17;1.07;;;26.50;55.00;;;;;;4987316;28;20961;-62
2022/06/26 10:29:08;;;;;;;1.13;1.03;;;26.60;54.10;;;;;;4982527;28;20443;-62
2022/06/26 10:31:49;;;;;;;1.03;1.03;;;26.70;53.10;;;;;;4987098;28;20298;-61
2022/06/26 10:34:22;;;;;;;2.43;1.23;;;26.80;52.30;;;;;;4984911;28;20452;-62
2022/06/26 10:37:13;;;;;;;1.07;1.07;;;26.90;51.90;;;;;;4983762;28;20531;-61
2022/06/26 10:39:40;;;;;;;1.07;1.07;;;27.10;52.40;;;;;;4987830;28;20499;-62
2022/06/26 10:45:00;;;;;;;1.17;1.07;;;27.40;51.20;;;;;;4986940;28;20524;-62
2022/06/26 10:47:44;;;;;;;2.07;0.93;;;27.40;51.10;;;;;;4985510;28;20433;-62
2022/06/26 10:50:31;;;;;;;1.53;1.17;;;27.50;51.60;;;;;;4982721;28;20280;-62
2022/06/26 10:53:19;;;;;;;1.37;1.27;;;27.60;52.10;;;;;;4989175;28;20266;-62
2022/06/26 10:55:51;;;;;;;1.10;1.00;;;27.70;52.50;;;;;;4989897;28;20169;-62
2022/06/26 10:58:22;;;;;;;1.33;1.10;;;27.70;52.60;;;;;;4985510;28;20177;-62
2022/06/26 11:00:48;;;;;;;1.50;1.13;;;27.90;53.40;;;;;;4985666;28;20200;-62
2022/06/26 11:03:15;;;;;;;0.97;0.90;;;27.90;52.80;;;;;;4980230;28;20266;-62
2022/06/26 11:06:00;;;;;;;1.30;1.20;;;28.00;50.90;;;;;;4987278;28;20173;-63
2022/06/26 11:08:30;;;;;;;1.20;1.10;;;28.10;51.50;;;;;;4975702;28;20180;-63
2022/06/26 11:11:17;;;;;;;0.90;0.90;;;28.10;49.50;;;;;;4987125;28;20205;-63
2022/06/26 11:14:01;;;;;;;1.10;1.10;;;28.10;50.90;;;;;;4986947;28;20176;-63
2022/06/26 11:16:34;;;;;;;1.10;1.00;;;28.20;50.00;;;;;;4981052;28;20174;-63
2022/06/26 11:19:03;;;;;;;3.93;1.23;;;28.30;50.60;;;;;;4986867;28;20185;-62
2022/06/26 11:21:29;;;;;;;1.60;1.50;;;28.30;50.90;;;;;;4986605;28;20352;-62
2022/06/26 11:23:55;;;;;;;1.27;1.10;;;28.20;51.00;;;;;;4987222;28;20832;-62
2022/06/26 11:26:22;;;;;;;1.00;0.90;;;28.30;52.70;;;;;;4988018;28;20381;-62
2022/06/26 11:28:58;;;;;;;1.00;0.90;;;28.40;52.80;;;;;;4986183;28;20255;-62
2022/06/26 11:31:28;;;;;;;1.00;1.00;;;28.20;51.90;;;;;;4985132;28;20231;-62
2022/06/26 11:33:55;;;;;;;1.03;1.03;;;27.80;51.60;;;;;;4980831;28;20191;-62
2022/06/26 11:36:22;;;;;;;1.93;1.10;;;27.70;53.00;;;;;;4986431;28;20169;-62
2022/06/26 11:38:54;;;;;;;1.30;1.20;;;27.80;52.40;;;;;;4990093;28;20267;-62
2022/06/26 11:41:22;;;;;;;1.00;0.90;;;28.00;53.20;;;;;;4987360;28;20625;-63
2022/06/26 11:43:53;;;;;;;3.37;0.97;;;28.20;52.30;;;;;;4985233;28;20172;-61
2022/06/26 11:46:19;;;;;;;1.40;1.30;;;28.40;50.80;;;;;;4976097;28;20554;-63
2022/06/26 11:48:48;;;;;;;1.90;1.10;;;28.60;51.00;;;;;;4980568;28;20189;-62
2022/06/26 11:51:13;;;;;;;1.93;0.93;;;28.90;50.10;;;;;;4983589;28;20212;-62
2022/06/26 11:53:43;;;;;;;1.50;0.80;;;29.00;47.80;;;;;;4983525;28;20239;-61
2022/06/26 11:56:08;;;;;;;2.40;1.00;;;29.20;47.70;;;;;;4978052;28;20176;-62
2022/06/26 11:58:35;;;;;;;2.35;1.30;;;29.40;48.30;;;;;;4987815;28;20259;-63
2022/06/26 12:01:11;;;;;;;1.20;1.10;;;29.50;47.00;;;;;;4984022;28;20209;-61
2022/06/26 12:03:50;;;;;;;0.90;0.90;;;29.70;47.10;;;;;;4986759;28;20649;-62
2022/06/26 12:06:54;;;;;;;1.00;0.90;;;29.80;46.40;;;;;;4986852;28;20856;-61
2022/06/26 12:09:21;;;;;;;1.25;0.90;;;29.90;47.40;;;;;;4938126;28;20948;-62
2022/06/26 12:11:49;;;;;;;1.98;0.90;;;30.00;47.20;;;;;;4946805;28;20220;-61
2022/06/26 12:14:17;;;;;;;1.20;1.10;;;30.10;46.90;;;;;;4963086;28;20181;-63
2022/06/26 12:16:54;;;;;;;1.27;1.10;;;30.20;46.00;;;;;;4984339;28;20177;-62
2022/06/26 12:19:21;;;;;;;5.97;1.00;;;30.30;46.60;;;;;;4980450;28;20172;-62
2022/06/26 12:21:49;;;;;;;1.10;1.00;;;30.40;46.30;;;;;;4983099;28;20211;-62
2022/06/26 12:24:17;;;;;;;1.00;1.00;;;30.50;45.80;;;;;;4987795;28;20651;-63
2022/06/26 12:26:44;;;;;;;1.95;1.20;;;30.60;45.20;;;;;;4984561;28;20193;-62
2022/06/26 12:29:15;;;;;;;3.22;1.02;;;30.70;46.00;;;;;;4986375;28;20181;-62
2022/06/26 12:31:42;;;;;;;2.03;1.00;;;30.80;46.00;;;;;;4983903;28;20832;-63
2022/06/26 12:34:08;;;;;;;1.00;0.90;;;30.90;45.50;;;;;;4978047;28;20550;-62
2022/06/26 12:36:35;;;;;;;0.88;0.82;;;31.00;45.80;;;;;;4971292;28;20216;-64
2022/06/26 12:39:02;;;;;;;1.15;1.00;;;31.00;45.60;;;;;;4980339;28;20274;-62
2022/06/26 12:41:28;;;;;;;1.13;1.02;;;31.10;45.90;;;;;;4980648;28;20196;-63
2022/06/26 12:44:03;;;;;;;1.08;1.05;;;31.20;43.60;;;;;;4982856;28;20194;-63
2022/06/26 12:46:32;;;;;;;1.08;1.02;;;31.30;44.80;;;;;;4982843;28;20207;-62
2022/06/26 12:48:58;;;;;;;1.00;1.00;;;31.40;45.20;;;;;;4984465;28;20183;-62
2022/06/26 12:51:25;;;;;;;2.45;1.08;;;31.40;43.50;;;;;;4988247;28;20211;-62
2022/06/26 12:53:51;;;;;;;1.50;1.13;;;31.50;44.30;;;;;;4988251;28;20181;-62
2022/06/26 12:56:17;;;;;;;0.90;0.90;;;31.60;43.70;;;;;;4980100;28;20169;-62
2022/06/26 12:58:43;;;;;;;2.25;0.98;;;31.70;42.20;;;;;;4981457;28;20189;-62
2022/06/26 13:01:09;;;;;;;1.50;1.02;;;31.80;42.60;;;;;;4977265;28;20220;-62
2022/06/26 13:03:35;;;;;;;1.92;1.15;;;32.00;42.80;;;;;;4987539;28;20227;-62
2022/06/26 13:06:02;;;;;;;2.55;0.98;;;32.00;41.30;;;;;;4976121;28;20189;-61